Details From LFPG - Paris Charles De Gaulle
To GCGM - La Gomera
Flight Number -
Tags decoded
Created
Modified
Stats Distance 1,567 nm / 2,902 km
Max Altitude 0 ft / 0 m
Waypoints 3
Social Downloads 3
Likes 0
Share VATSIM

Download

Looking for another format? Having issues loading an existing format? Contact us
Advertisement - Login to hide

Notes

Requested: LFPG GOMER GCGM

Route

LFPG GOMER GCGM

ID Type Via Altitude Latitude Longitude Leg Dist Tot Dist Heading (true) Name
O LFPG APT - 0 ft / 0 m 49.00974˚ 2.56262˚ - 0 nm - Paris Charles De Gaulle
GOMER FIX - 0 ft / 0 m 28.00000˚ -17.33333˚ 1560 nm 1560 nm 223° / 211° -
O GCGM APT - 0 ft / 0 m 28.02963˚ -17.21460˚ 6 nm 1566 nm 74° / 74° La Gomera

Altitude Profile

Advertisement - Login to hide

Weather


0- 5 10 15 20 25 30 35+ Temperature / ° C

Clouds and Precipitation
Forecast for 2018-05-26 06:00 UTC. Updated 5 hours ago

Ground ~20,000 ft ~40,000 ft Winds

LFPG

Details ICAO LFPG (CDG)
Name Paris Charles De Gaulle
Region France
Timezone Europe/Paris (UTC+2.0)
Stats Elevation 392 ft / 119 m (AMSL)
Location 49.009742° 2.562619°
Runways 4
Magnetic Variation 0.701° E

METAR

LFPG 261030Z 10012KT CAVOK 25/18 Q1016 NOSIG

Decode

TAF

TAF LFPG 260500Z 2606/2712 05010KT CAVOK BECMG 2609/2611 12010KT TEMPO 2611/2618 13015G25KT BECMG 2614/2616 SCT060TCU PROB30 TEMPO 2616/2621 4000 -TSRA SCT050CB BECMG 2621/2623 CAVOK PROB30 TEMPO 2621/2702 -SHRA BECMG 2710/2712 SCT030TCU TX30/2615Z TN16/2606Z

Decode

Departure Runways

ID Width Length Bearing (true) Bearing (mag) Surface Threshold Offset Overrun Length
08L 148 ft / 45 m 14,039 ft / 4,279 m 85.37° 84.67° Asphalt 0 ft / 0 m 0 ft / 0 m
08R 197 ft / 60 m 8,797 ft / 2,681 m 85.39° 84.69° Asphalt 0 ft / 0 m 0 ft / 0 m
09L 197 ft / 60 m 8,835 ft / 2,693 m 85.39° 84.69° Asphalt 0 ft / 0 m 0 ft / 0 m
09R 148 ft / 45 m 13,744 ft / 4,189 m 85.38° 84.68° Asphalt 0 ft / 0 m 0 ft / 0 m
26L 197 ft / 60 m 8,797 ft / 2,681 m 265.41° 264.71° Asphalt 0 ft / 0 m 0 ft / 0 m
26R 148 ft / 45 m 14,039 ft / 4,279 m 265.41° 264.71° Asphalt 1,893 ft / 577 m 0 ft / 0 m
27L 148 ft / 45 m 13,744 ft / 4,189 m 265.42° 264.72° Asphalt 1,969 ft / 600 m 0 ft / 0 m
27R 197 ft / 60 m 8,835 ft / 2,693 m 265.41° 264.71° Asphalt 0 ft / 0 m 0 ft / 0 m

GCGM

Details ICAO GCGM (GMZ)
Name La Gomera
Region Canary Islands
Timezone Atlantic/Canary (UTC+1.0)
Stats Elevation 715 ft / 218 m (AMSL)
Location 28.029627° -17.214603°
Runways 1
Magnetic Variation 5.307° W

METAR

GCGM 261030Z VRB06G16KT 9999 SCT040 20/11 Q1019 RMK R09/24004KT 180V310 ARP/29004KT

Decode

TAF

TAF GCGM 260800Z 2609/2709 VRB06KT 9999 SCT045 TX23/2614Z TN16/2705Z TEMPO 2609/2622 36010KT

Decode

Destination Runways

ID Width Length Bearing (true) Bearing (mag) Surface Threshold Offset Overrun Length
09 98 ft / 30 m 4,914 ft / 1,498 m 81.17° 86.48° Asphalt 0 ft / 0 m 0 ft / 0 m
27 98 ft / 30 m 4,914 ft / 1,498 m 261.18° 266.49° Asphalt 0 ft / 0 m 0 ft / 0 m